createdAt,value
2018-04-17T05:21:12.152Z,1820.00
2018-04-17T05:22:12.128Z,1856.00
2018-04-17T05:23:12.100Z,1896.00
2018-04-17T05:24:12.081Z,1936.00
2018-04-17T05:25:12.050Z,1976.00
2018-04-17T05:26:12.057Z,2016.00
2018-04-17T05:27:12.003Z,2060.00
2018-04-17T05:28:11.998Z,2100.00
2018-04-17T05:29:11.960Z,2136.00
2018-04-17T05:30:11.943Z,2172.00
2018-04-17T05:31:11.924Z,2208.00
2018-04-17T05:32:11.895Z,2252.00
2018-04-17T05:33:11.933Z,2684.00
2018-04-17T05:34:11.860Z,3192.00
2018-04-17T05:35:11.850Z,2676.00
2018-04-17T05:36:11.805Z,2412.00
2018-04-17T05:37:11.787Z,2452.00
2018-04-17T05:38:11.785Z,2452.00
2018-04-17T05:39:11.738Z,2536.00
2018-04-17T05:40:11.759Z,2584.00
2018-04-17T05:41:11.707Z,2604.00
2018-04-17T05:42:11.712Z,2676.00
2018-04-17T05:43:11.660Z,2728.00
2018-04-17T05:44:11.648Z,2788.00
2018-04-17T05:45:11.625Z,2836.00
2018-04-17T05:46:11.631Z,3692.00
2018-04-17T05:47:11.605Z,5224.00
2018-04-17T05:48:11.565Z,5616.00
2018-04-17T05:49:11.546Z,5944.00
2018-04-17T05:50:11.565Z,6816.00
2018-04-17T05:51:11.523Z,7784.00
2018-04-17T05:52:11.561Z,8692.00
2018-04-17T05:53:11.454Z,9476.00
2018-04-17T05:54:11.436Z,9484.00
2018-04-17T05:55:11.443Z,8900.00
2018-04-17T05:56:11.440Z,8216.00
2018-04-17T05:57:11.376Z,7236.00
2018-04-17T05:58:11.363Z,6500.00
2018-04-17T05:59:11.335Z,6552.00
2018-04-17T06:00:11.342Z,7560.00
2018-04-17T06:01:11.339Z,8560.00
2018-04-17T06:02:11.310Z,9548.00
2018-04-17T06:03:11.260Z,10256.00
2018-04-17T06:04:11.264Z,10656.00
2018-04-17T06:05:11.292Z,10872.00
2018-04-17T06:06:11.220Z,10932.00
2018-04-17T06:07:11.215Z,11352.00
2018-04-17T06:08:11.210Z,11536.00
2018-04-17T06:09:11.152Z,11336.00
2018-04-17T06:10:11.140Z,10644.00
2018-04-17T06:11:11.139Z,10236.00
2018-04-17T06:12:11.115Z,9904.00
2018-04-17T06:13:11.081Z,9924.00
2018-04-17T06:14:11.092Z,10444.00
2018-04-17T06:15:11.043Z,11804.00
2018-04-17T06:16:11.037Z,14048.00
2018-04-17T06:17:11.015Z,16256.00
2018-04-17T06:18:10.999Z,17536.00
2018-04-17T06:19:10.979Z,17504.00
2018-04-17T06:20:10.957Z,16928.00
2018-04-17T06:21:10.940Z,15392.00
2018-04-17T06:22:10.928Z,14176.00
2018-04-17T06:23:10.949Z,13152.00
2018-04-17T06:24:10.887Z,12704.00
2018-04-17T06:25:10.887Z,13920.00
2018-04-17T06:26:10.854Z,15840.00
2018-04-17T06:27:10.861Z,18112.00
2018-04-17T06:28:10.850Z,19744.00
2018-04-17T06:29:10.806Z,20672.00
2018-04-17T06:30:10.797Z,20832.00
2018-04-17T06:31:10.783Z,19744.00
2018-04-17T06:32:10.770Z,17920.00
2018-04-17T06:33:10.755Z,17024.00
2018-04-17T06:34:10.737Z,17056.00
2018-04-17T06:35:10.772Z,17952.00
2018-04-17T06:36:10.723Z,18656.00
2018-04-17T06:37:10.726Z,18688.00
2018-04-17T06:38:10.673Z,18048.00
2018-04-17T06:39:10.661Z,17952.00
2018-04-17T06:40:10.636Z,17056.00
2018-04-17T06:41:10.641Z,17120.00
2018-04-17T06:42:10.606Z,18304.00
2018-04-17T06:43:10.602Z,20672.00
2018-04-17T06:44:10.577Z,23744.00
2018-04-17T06:45:10.568Z,27296.00
2018-04-17T06:46:10.573Z,27456.00
2018-04-17T06:47:10.543Z,26016.00
2018-04-17T06:48:10.528Z,22784.00
2018-04-17T06:49:10.505Z,18176.00
2018-04-17T06:50:10.493Z,14112.00
2018-04-17T06:51:10.485Z,12352.00
2018-04-17T06:52:10.511Z,13088.00
2018-04-17T06:53:10.453Z,15936.00
2018-04-17T06:54:10.447Z,19872.00
2018-04-17T06:55:10.428Z,24480.00
2018-04-17T06:56:10.443Z,26336.00
2018-04-17T06:57:10.413Z,25888.00
2018-04-17T06:58:10.431Z,25088.00
2018-04-17T06:59:10.388Z,24128.00
2018-04-17T07:00:10.384Z,23232.00
2018-04-17T07:01:10.364Z,23328.00
2018-04-17T07:02:10.341Z,24256.00
2018-04-17T07:03:10.334Z,24736.00
2018-04-17T07:04:10.340Z,23840.00
2018-04-17T07:05:10.327Z,22304.00
2018-04-17T07:06:10.290Z,19424.00
2018-04-17T07:07:10.282Z,11872.00
2018-04-17T07:08:10.275Z,5548.00
2018-04-17T07:09:10.252Z,4728.00
2018-04-17T07:10:10.245Z,4656.00
2018-04-17T07:11:10.233Z,4604.00
2018-04-17T07:12:10.217Z,4576.00
2018-04-17T07:13:10.211Z,4580.00
2018-04-17T07:14:10.189Z,4576.00
2018-04-17T07:15:10.206Z,4524.00
2018-04-17T07:16:10.195Z,4492.00
2018-04-17T07:17:10.175Z,4500.00
2018-04-17T07:18:10.170Z,4488.00
2018-04-17T07:19:10.129Z,4476.00
2018-04-17T07:20:10.116Z,4468.00
2018-04-17T07:21:10.104Z,4476.00
2018-04-17T07:22:10.117Z,4448.00
2018-04-17T07:23:10.087Z,4436.00
2018-04-17T07:24:10.071Z,4436.00
2018-04-17T07:25:10.129Z,4428.00
2018-04-17T07:26:10.074Z,4420.00
2018-04-17T07:27:10.034Z,4412.00
2018-04-17T07:28:10.019Z,4408.00
2018-04-17T07:29:10.022Z,4408.00
2018-04-17T07:30:09.984Z,4384.00
2018-04-17T07:31:09.968Z,4336.00
2018-04-17T07:32:09.989Z,4312.00
2018-04-17T07:33:09.968Z,4268.00
2018-04-17T07:34:09.949Z,4300.00
2018-04-17T07:35:09.923Z,4268.00
2018-04-17T07:36:09.901Z,4252.00
2018-04-17T07:37:09.885Z,4236.00
2018-04-17T07:38:09.908Z,4220.00
2018-04-17T07:39:09.865Z,4176.00
2018-04-17T07:40:09.845Z,4140.00
2018-04-17T07:41:09.839Z,4132.00
2018-04-17T07:42:09.819Z,4124.00
2018-04-17T07:43:09.807Z,4120.00
2018-04-17T07:44:09.829Z,4132.00
2018-04-17T07:45:09.783Z,4104.00
2018-04-17T07:46:09.800Z,4092.00
2018-04-17T07:47:09.784Z,4076.00
2018-04-17T07:48:09.734Z,4068.00
2018-04-17T07:49:09.721Z,4052.00
2018-04-17T07:50:09.720Z,4048.00
2018-04-17T07:51:09.910Z,4060.00
2018-04-17T07:52:09.683Z,4056.00
2018-04-17T07:53:09.693Z,4064.00
2018-04-17T07:54:09.655Z,4036.00
2018-04-17T07:55:09.638Z,3984.00
2018-04-17T07:56:09.632Z,3976.00
2018-04-17T07:57:09.627Z,3972.00
2018-04-17T07:58:09.790Z,3968.00
2018-04-17T07:59:09.600Z,3988.00
2018-04-17T08:00:09.586Z,3976.00
2018-04-17T08:01:09.907Z,3952.00
2018-04-17T08:02:09.531Z,3912.00
2018-04-17T08:03:09.519Z,3928.00
2018-04-17T08:04:09.506Z,3988.00
2018-04-17T08:05:09.489Z,4020.00
2018-04-17T08:06:09.480Z,4000.00
2018-04-17T08:07:09.474Z,4012.00
2018-04-17T08:08:09.464Z,4040.00
2018-04-17T08:09:09.452Z,4040.00
2018-04-17T08:10:09.415Z,4036.00
2018-04-17T08:11:09.405Z,4036.00
2018-04-17T08:12:09.410Z,4068.00
2018-04-17T08:13:09.427Z,4108.00
2018-04-17T08:14:09.384Z,4124.00
2018-04-17T08:15:09.349Z,4108.00
2018-04-17T08:16:09.360Z,4088.00
2018-04-17T08:17:09.326Z,4072.00
2018-04-17T08:18:09.315Z,4056.00
2018-04-17T08:19:09.284Z,4048.00
2018-04-17T08:20:09.289Z,4068.00
2018-04-17T08:21:09.249Z,4072.00
2018-04-17T08:22:09.243Z,4056.00
2018-04-17T08:23:09.255Z,4020.00
2018-04-17T08:24:09.229Z,3956.00
2018-04-17T08:25:09.191Z,3936.00
2018-04-17T08:26:09.200Z,3948.00
2018-04-17T08:27:09.168Z,3944.00
2018-04-17T08:28:09.145Z,3912.00
2018-04-17T08:29:09.163Z,3880.00
2018-04-17T08:30:09.133Z,3880.00
2018-04-17T08:31:09.113Z,3912.00
2018-04-17T08:32:09.117Z,3928.00
2018-04-17T08:33:09.091Z,3952.00
2018-04-17T08:34:09.075Z,3952.00
2018-04-17T08:35:09.209Z,3948.00
2018-04-17T08:36:09.071Z,3944.00
2018-04-17T08:37:09.065Z,3936.00
2018-04-17T08:38:09.076Z,3920.00
2018-04-17T08:39:08.991Z,3920.00
2018-04-17T08:40:09.027Z,3944.00
2018-04-17T08:41:08.962Z,3976.00
2018-04-17T08:42:08.957Z,3972.00
2018-04-17T08:43:08.946Z,3964.00
2018-04-17T08:44:09.001Z,3988.00
2018-04-17T08:45:08.928Z,4012.00
2018-04-17T08:46:08.944Z,4060.00
2018-04-17T08:47:08.885Z,4064.00
2018-04-17T08:48:08.898Z,4076.00
2018-04-17T08:49:08.853Z,4060.00
2018-04-17T08:50:08.894Z,4060.00
2018-04-17T08:51:08.814Z,4036.00
2018-04-17T08:52:08.795Z,3972.00
2018-04-17T08:53:08.818Z,3964.00
2018-04-17T08:54:08.808Z,4024.00
2018-04-17T08:55:08.785Z,4044.00
2018-04-17T08:56:08.783Z,4032.00
2018-04-17T08:57:08.745Z,4052.00
2018-04-17T08:58:08.708Z,4100.00
2018-04-17T08:59:08.792Z,4108.00
2018-04-17T09:00:08.698Z,4036.00
2018-04-17T09:01:08.972Z,4040.00
2018-04-17T09:02:08.656Z,4100.00
2018-04-17T09:03:08.643Z,4140.00
2018-04-17T09:04:08.657Z,4196.00
2018-04-17T09:05:08.642Z,4252.00
2018-04-17T09:06:08.606Z,4252.00
2018-04-17T09:07:08.607Z,4236.00
2018-04-17T09:08:08.591Z,4272.00
2018-04-17T09:09:08.575Z,4308.00
2018-04-17T09:10:08.548Z,4328.00
2018-04-17T09:11:08.537Z,4360.00
2018-04-17T09:12:16.227Z,4396.00
2018-04-17T09:14:11.632Z,4424.00
2018-04-17T09:15:02.907Z,4460.00
2018-04-17T09:16:02.866Z,4496.00
2018-04-17T09:17:03.127Z,4516.00
2018-04-17T09:18:02.824Z,4564.00
2018-04-17T09:20:25.865Z,4640.00
2018-04-17T09:21:25.919Z,4680.00
2018-04-17T09:22:25.873Z,4568.00
2018-04-17T09:23:25.807Z,4540.00
2018-04-17T09:24:25.777Z,4616.00
2018-04-17T09:25:25.838Z,4664.00
2018-04-17T09:26:25.777Z,4636.00
2018-04-17T09:27:25.747Z,4580.00
2018-04-17T09:28:25.744Z,4516.00
2018-04-17T09:29:25.746Z,4488.00
2018-04-17T09:30:25.696Z,4472.00
2018-04-17T09:31:25.704Z,4568.00
2018-04-17T09:32:25.751Z,4720.00
2018-04-17T09:33:25.665Z,4668.00
2018-04-17T09:34:25.732Z,4608.00
2018-04-17T09:35:25.661Z,4652.00
2018-04-17T09:36:25.635Z,4820.00
2018-04-17T09:37:25.607Z,4896.00
2018-04-17T09:38:25.650Z,4920.00
2018-04-17T09:39:25.616Z,4956.00
2018-04-17T09:40:25.596Z,4996.00
2018-04-17T09:41:25.593Z,5016.00
2018-04-17T09:42:25.554Z,5040.00
2018-04-17T09:43:25.545Z,5132.00
2018-04-17T09:44:25.535Z,5156.00
2018-04-17T09:45:25.532Z,5140.00
2018-04-17T09:46:25.522Z,5140.00
2018-04-17T09:47:25.460Z,5112.00
2018-04-17T09:48:25.496Z,5068.00
2018-04-17T09:49:25.495Z,5176.00
2018-04-17T09:50:25.436Z,5288.00
2018-04-17T09:51:25.421Z,5340.00
2018-04-17T09:52:25.425Z,5404.00
2018-04-17T09:53:25.407Z,5280.00
2018-04-17T09:54:25.367Z,5380.00
2018-04-17T09:55:25.376Z,5484.00
2018-04-17T09:56:25.374Z,5556.00
2018-04-17T09:57:25.328Z,5668.00
2018-04-17T09:58:25.350Z,5792.00
2018-04-17T09:59:25.328Z,5916.00
2018-04-17T10:00:25.293Z,5952.00
2018-04-17T10:01:25.332Z,5988.00
2018-04-17T10:02:25.299Z,6004.00
2018-04-17T10:03:25.275Z,6012.00
2018-04-17T10:04:25.247Z,5992.00
2018-04-17T10:05:25.223Z,6016.00
2018-04-17T10:06:25.222Z,5992.00
2018-04-17T10:07:25.214Z,5980.00
2018-04-17T10:08:25.205Z,5820.00
2018-04-17T10:09:25.235Z,5628.00
2018-04-17T10:10:25.194Z,5528.00
2018-04-17T10:11:25.186Z,5616.00
2018-04-17T10:12:25.212Z,5740.00
2018-04-17T10:13:25.144Z,5840.00
2018-04-17T10:14:32.807Z,6068.00
2018-04-17T10:16:28.305Z,6464.00
2018-04-17T10:17:19.487Z,6064.00
2018-04-17T10:18:19.526Z,5852.00
2018-04-17T10:19:19.449Z,5460.00
2018-04-17T10:20:19.433Z,5272.00
2018-04-17T10:21:19.452Z,5164.00
2018-04-17T10:22:19.409Z,5036.00
2018-04-17T10:23:19.400Z,4888.00
2018-04-17T10:24:19.451Z,4896.00
2018-04-17T10:25:19.382Z,4860.00
2018-04-17T10:26:19.359Z,4784.00
2018-04-17T10:27:19.351Z,4728.00
2018-04-17T10:28:19.342Z,4760.00
2018-04-17T10:29:19.318Z,4740.00
2018-04-17T10:30:19.374Z,4704.00
2018-04-17T10:31:19.319Z,4688.00
2018-04-17T10:32:19.353Z,4604.00
2018-04-17T10:33:19.519Z,4572.00
2018-04-17T10:34:19.329Z,4540.00
2018-04-17T10:35:19.294Z,4452.00
2018-04-17T10:36:19.279Z,4388.00
2018-04-17T10:37:19.251Z,4384.00
2018-04-17T10:38:19.308Z,4224.00
2018-04-17T10:39:19.224Z,4056.00
2018-04-17T10:40:19.193Z,4292.00
2018-04-17T10:41:19.169Z,4292.00
2018-04-17T10:42:19.178Z,4272.00
2018-04-17T10:43:19.190Z,4236.00
2018-04-17T10:44:19.129Z,4176.00
2018-04-17T10:45:19.155Z,4112.00
2018-04-17T10:46:19.115Z,4124.00
2018-04-17T10:47:19.097Z,4120.00
2018-04-17T10:48:19.084Z,4116.00
2018-04-17T10:50:50.813Z,4156.00
2018-04-17T10:51:42.086Z,4164.00
2018-04-17T10:52:42.072Z,4144.00
2018-04-17T10:53:42.069Z,4128.00
2018-04-17T10:54:42.063Z,4144.00
2018-04-17T10:55:42.127Z,4176.00
2018-04-17T10:56:42.070Z,4256.00
2018-04-17T10:57:42.019Z,4264.00
2018-04-17T10:58:42.011Z,4276.00
2018-04-17T10:59:42.038Z,4276.00
2018-04-17T11:00:41.996Z,4280.00
2018-04-17T11:01:41.956Z,4292.00
2018-04-17T11:02:41.948Z,4320.00
2018-04-17T11:03:41.929Z,4320.00
2018-04-17T11:04:41.928Z,4332.00
2018-04-17T11:05:41.929Z,4352.00
2018-04-17T11:06:41.901Z,4380.00
2018-04-17T11:07:41.880Z,4408.00
2018-04-17T11:08:41.877Z,4440.00
2018-04-17T11:09:41.849Z,4480.00
2018-04-17T11:10:41.851Z,4460.00
2018-04-17T11:11:49.544Z,4472.00
2018-04-17T11:13:36.255Z,4444.00
2018-04-17T11:14:36.367Z,4452.00
2018-04-17T11:15:36.195Z,4444.00
2018-04-17T11:16:36.179Z,4420.00
2018-04-17T11:17:36.306Z,4396.00
2018-04-17T11:18:36.204Z,4368.00
2018-04-17T11:19:36.154Z,4376.00
2018-04-17T11:22:01.257Z,4444.00
2018-04-17T11:23:00.881Z,4424.00
2018-04-17T11:24:00.836Z,4364.00
2018-04-17T11:25:00.812Z,4364.00
2018-04-17T11:27:33.347Z,4376.00
2018-04-17T11:28:23.938Z,4408.00
2018-04-17T11:29:24.020Z,4396.00
2018-04-17T11:30:23.974Z,4384.00
2018-04-17T11:31:23.835Z,4376.00
2018-04-17T11:32:23.799Z,4384.00
2018-04-17T11:33:23.826Z,4412.00
2018-04-17T11:34:23.785Z,4452.00
2018-04-17T11:35:23.784Z,4512.00
2018-04-17T11:36:24.349Z,4536.00
2018-04-17T11:39:00.436Z,4516.00
2018-04-17T11:39:59.998Z,4484.00
2018-04-17T11:40:59.834Z,4464.00
2018-04-17T11:41:59.855Z,4464.00
2018-04-17T11:42:59.994Z,4420.00
2018-04-17T11:43:59.808Z,4440.00
2018-04-17T11:44:59.803Z,4488.00
2018-04-17T11:45:59.763Z,4524.00
2018-04-17T11:46:59.813Z,4572.00
2018-04-17T11:47:59.894Z,4656.00
2018-04-17T11:48:59.937Z,4680.00
2018-04-17T11:49:59.709Z,4772.00
2018-04-17T11:50:59.777Z,4840.00
2018-04-17T11:52:00.498Z,4888.00
2018-04-17T11:52:59.803Z,4908.00
2018-04-17T11:53:59.678Z,4952.00
2018-04-17T11:54:59.710Z,4964.00
2018-04-17T11:55:59.658Z,5004.00
2018-04-17T11:56:59.634Z,4916.00
2018-04-17T11:57:59.637Z,4924.00
2018-04-17T11:58:59.636Z,4844.00
2018-04-17T11:59:59.651Z,4776.00
2018-04-17T12:00:59.616Z,4624.00
2018-04-17T12:01:59.567Z,4460.00
2018-04-17T12:02:59.812Z,4440.00
2018-04-17T12:03:59.552Z,4576.00
2018-04-17T12:04:59.537Z,4704.00
2018-04-17T12:05:59.564Z,4736.00
2018-04-17T12:06:59.527Z,4828.00
2018-04-17T12:07:59.505Z,4916.00
2018-04-17T12:08:59.488Z,4968.00
2018-04-17T12:09:59.477Z,5008.00
2018-04-17T12:10:59.477Z,5064.00
2018-04-17T12:11:59.488Z,5084.00
2018-04-17T12:12:59.464Z,5196.00
2018-04-17T12:13:59.434Z,5296.00
2018-04-17T12:14:59.422Z,5272.00
2018-04-17T12:15:59.529Z,5392.00
2018-04-17T12:18:32.535Z,5676.00
2018-04-17T12:19:31.714Z,5804.00
2018-04-17T12:21:24.810Z,5968.00
2018-04-17T12:23:39.920Z,6168.00
2018-04-17T12:24:38.904Z,6044.00
2018-04-17T12:25:38.878Z,6192.00
2018-04-17T12:26:38.855Z,6676.00
2018-04-17T12:27:38.840Z,7036.00
2018-04-17T12:28:38.838Z,7108.00
2018-04-17T12:29:38.807Z,7128.00
2018-04-17T12:30:38.804Z,6884.00
2018-04-17T12:33:12.045Z,7544.00
2018-04-17T12:34:01.900Z,7612.00
2018-04-17T12:35:01.838Z,7476.00
2018-04-17T12:36:01.798Z,7272.00
2018-04-17T12:37:01.803Z,7120.00
2018-04-17T12:38:01.801Z,7164.00
2018-04-17T12:39:01.788Z,6800.00
2018-04-17T12:40:01.763Z,6824.00
2018-04-17T12:41:01.732Z,7056.00
2018-04-17T12:42:01.735Z,7132.00
2018-04-17T12:43:01.752Z,6868.00
2018-04-17T12:44:01.746Z,7044.00
2018-04-17T12:46:32.453Z,6904.00
2018-04-17T12:47:24.750Z,6744.00
2018-04-17T12:49:29.185Z,6776.00
2018-04-17T12:50:19.094Z,6796.00
2018-04-17T12:51:19.115Z,6768.00
2018-04-17T12:52:19.150Z,6732.00
2018-04-17T12:53:19.076Z,6668.00
2018-04-17T12:54:19.058Z,6728.00
2018-04-17T12:55:19.029Z,6796.00
2018-04-17T12:57:42.073Z,7000.00
2018-04-17T12:58:42.087Z,7064.00
2018-04-17T12:59:42.062Z,7192.00
2018-04-17T13:00:42.029Z,7468.00
2018-04-17T13:01:42.052Z,7716.00
2018-04-17T13:02:42.059Z,8236.00
2018-04-17T13:03:42.041Z,8816.00
2018-04-17T13:04:42.000Z,9920.00
2018-04-17T13:05:41.985Z,10688.00
2018-04-17T13:06:41.990Z,11352.00
2018-04-17T13:07:42.004Z,12620.00
2018-04-17T13:10:14.286Z,14604.00
2018-04-17T13:11:05.042Z,15808.00
2018-04-17T13:12:12.699Z,17504.00
2018-04-17T13:13:58.393Z,27936.00
2018-04-17T13:14:58.347Z,36832.00
2018-04-17T13:17:04.911Z,44672.00
2018-04-17T13:17:53.761Z,42304.00
2018-04-17T13:18:53.737Z,39488.00
2018-04-17T13:19:53.762Z,43232.00
2018-04-17T13:20:53.733Z,37504.00
2018-04-17T13:21:53.711Z,34368.00
2018-04-17T13:22:53.710Z,28928.00
2018-04-17T13:23:53.784Z,26976.00
2018-04-17T13:24:53.736Z,29344.00
2018-04-17T13:25:53.707Z,36320.00
2018-04-17T13:26:53.706Z,32960.00
2018-04-17T13:27:53.681Z,29856.00
2018-04-17T13:28:53.669Z,31040.00
2018-04-17T13:29:53.649Z,31552.00
2018-04-17T13:30:53.673Z,25344.00
2018-04-17T13:31:53.685Z,30400.00
2018-04-17T13:32:53.664Z,22016.00
2018-04-17T13:33:53.630Z,19200.00
2018-04-17T13:34:53.628Z,24576.00
2018-04-17T13:35:53.615Z,23616.00
2018-04-17T13:36:53.645Z,23040.00
2018-04-17T13:37:53.654Z,24448.00
2018-04-17T13:38:53.607Z,24672.00
2018-04-17T13:39:53.622Z,24224.00
2018-04-17T13:40:53.619Z,23488.00
2018-04-17T13:41:53.612Z,23296.00
2018-04-17T13:42:53.608Z,24032.00
2018-04-17T13:43:53.601Z,25568.00
2018-04-17T13:44:53.576Z,26176.00
2018-04-17T13:45:53.600Z,26528.00
2018-04-17T13:46:53.565Z,26784.00
2018-04-17T13:47:53.596Z,25792.00
2018-04-17T13:48:53.623Z,25152.00
2018-04-17T13:49:53.608Z,25440.00
2018-04-17T13:50:53.570Z,22976.00
2018-04-17T13:51:53.590Z,23968.00
2018-04-17T13:52:53.629Z,25184.00
2018-04-17T13:53:53.542Z,25408.00
2018-04-17T13:54:53.527Z,23616.00
2018-04-17T13:55:53.576Z,23744.00
2018-04-17T13:56:53.524Z,24064.00
2018-04-17T13:57:53.547Z,26464.00
2018-04-17T13:58:53.566Z,25280.00
2018-04-17T13:59:53.512Z,27616.00
2018-04-17T14:00:53.509Z,28896.00
2018-04-17T14:01:53.503Z,27200.00
2018-04-17T14:02:53.525Z,23392.00
2018-04-17T14:03:53.555Z,24288.00
2018-04-17T14:04:53.527Z,24704.00
2018-04-17T14:05:53.520Z,24736.00
2018-04-17T14:06:53.505Z,20384.00
2018-04-17T14:07:53.529Z,18720.00
2018-04-17T14:08:53.486Z,17696.00
2018-04-17T14:09:53.577Z,15552.00
2018-04-17T14:10:53.477Z,16704.00
2018-04-17T14:11:53.482Z,20064.00
2018-04-17T14:12:53.477Z,19712.00
2018-04-17T14:13:53.516Z,20480.00
2018-04-17T14:14:53.468Z,17696.00
2018-04-17T14:15:53.452Z,20640.00
2018-04-17T14:16:53.533Z,17600.00
2018-04-17T14:17:53.583Z,14948.00
2018-04-17T14:18:53.457Z,14008.00
2018-04-17T14:19:53.714Z,15840.00
2018-04-17T14:20:54.722Z,14424.00
2018-04-17T14:21:53.605Z,14376.00
2018-04-17T14:22:53.548Z,14880.00
2018-04-17T14:23:53.599Z,14196.00
2018-04-17T14:24:53.454Z,13168.00
2018-04-17T14:25:53.525Z,13124.00
2018-04-17T14:26:53.411Z,12416.00
2018-04-17T14:27:53.424Z,14816.00
2018-04-17T14:28:53.392Z,14612.00
2018-04-17T14:29:53.408Z,14268.00
2018-04-17T14:32:17.472Z,12228.00
2018-04-17T14:33:16.517Z,11400.00
2018-04-17T14:34:16.531Z,11648.00
2018-04-17T14:35:16.518Z,12472.00
2018-04-17T14:36:16.488Z,13828.00
2018-04-17T14:37:16.486Z,14108.00
2018-04-17T14:38:16.509Z,15872.00
2018-04-17T14:39:16.510Z,11776.00
2018-04-17T14:40:16.469Z,9876.00
2018-04-17T14:41:16.480Z,9320.00
2018-04-17T14:42:16.467Z,10868.00
2018-04-17T14:43:16.490Z,12612.00
2018-04-17T14:44:16.452Z,11188.00
2018-04-17T14:45:16.462Z,10896.00
2018-04-17T14:46:16.449Z,10420.00
2018-04-17T14:47:16.433Z,10132.00
2018-04-17T14:48:16.444Z,11184.00
2018-04-17T14:49:24.120Z,10056.00
2018-04-17T14:51:10.817Z,8392.00
2018-04-17T14:52:10.823Z,8192.00
2018-04-17T14:53:10.817Z,7324.00
2018-04-17T14:54:10.804Z,7552.00
2018-04-17T14:55:10.809Z,7536.00
2018-04-17T14:56:10.783Z,7456.00
2018-04-17T14:57:10.784Z,7648.00
2018-04-17T14:58:11.060Z,8596.00
2018-04-17T14:59:10.749Z,9716.00
2018-04-17T15:00:10.752Z,9940.00
2018-04-17T15:01:10.741Z,9152.00
2018-04-17T15:02:10.745Z,8876.00
2018-04-17T15:03:10.715Z,9212.00
2018-04-17T15:04:10.766Z,11172.00
2018-04-17T15:05:10.805Z,9072.00
2018-04-17T15:06:10.723Z,8632.00
2018-04-17T15:07:10.710Z,8548.00
2018-04-17T15:08:10.691Z,9820.00
2018-04-17T15:09:10.725Z,10888.00
2018-04-17T15:10:10.682Z,11036.00
2018-04-17T15:11:10.697Z,10104.00
2018-04-17T15:12:10.671Z,9512.00
2018-04-17T15:13:10.657Z,9640.00
2018-04-17T15:14:10.674Z,9196.00
2018-04-17T15:15:10.672Z,9108.00
2018-04-17T15:16:10.633Z,8344.00
2018-04-17T15:17:12.395Z,7924.00
2018-04-17T15:18:10.650Z,7968.00
2018-04-17T15:19:10.604Z,7648.00
2018-04-17T15:20:10.673Z,7736.00
2018-04-17T15:21:10.585Z,7976.00
2018-04-17T15:22:10.597Z,7148.00
2018-04-17T15:23:10.605Z,7028.00
2018-04-17T15:24:10.612Z,7244.00
2018-04-17T15:25:10.581Z,7616.00
2018-04-17T15:26:10.581Z,7612.00
2018-04-17T15:27:10.538Z,7772.00
2018-04-17T15:28:10.559Z,7868.00
2018-04-17T15:29:10.577Z,7960.00
2018-04-17T15:30:10.553Z,8028.00
2018-04-17T15:31:10.537Z,8144.00
2018-04-17T15:32:10.504Z,8144.00
2018-04-17T15:33:10.491Z,8440.00
2018-04-17T15:34:10.482Z,8848.00
2018-04-17T15:35:10.480Z,9128.00
2018-04-17T15:36:10.502Z,9520.00
2018-04-17T15:37:10.490Z,9568.00
2018-04-17T15:38:10.462Z,9532.00
2018-04-17T15:39:10.457Z,9800.00
2018-04-17T15:40:10.438Z,10348.00
2018-04-17T15:41:10.484Z,10952.00
2018-04-17T15:42:10.450Z,10924.00
2018-04-17T15:43:10.422Z,10628.00
2018-04-17T15:44:10.462Z,10592.00
2018-04-17T15:45:10.400Z,10328.00
2018-04-17T15:46:10.459Z,11188.00
2018-04-17T15:47:10.387Z,11092.00
2018-04-17T15:48:10.404Z,10660.00
2018-04-17T15:49:10.382Z,10404.00
2018-04-17T15:50:10.378Z,9728.00
2018-04-17T15:51:10.391Z,10316.00
2018-04-17T15:52:10.412Z,10340.00
2018-04-17T15:53:10.385Z,8360.00
2018-04-17T15:54:10.351Z,7956.00
2018-04-17T15:55:10.329Z,9320.00
2018-04-17T15:56:10.376Z,10012.00
2018-04-17T15:57:10.307Z,9824.00
2018-04-17T15:58:10.347Z,9252.00
2018-04-17T15:59:10.321Z,9228.00
2018-04-17T16:00:10.288Z,8464.00
2018-04-17T16:01:10.292Z,8676.00
2018-04-17T16:02:10.284Z,9488.00
2018-04-17T16:03:10.284Z,9848.00
2018-04-17T16:04:10.280Z,9652.00
2018-04-17T16:05:10.260Z,9092.00
2018-04-17T16:06:10.264Z,8680.00
2018-04-17T16:07:10.284Z,8504.00
2018-04-17T16:08:10.297Z,8804.00
2018-04-17T16:09:10.216Z,9488.00
2018-04-17T16:10:10.212Z,9412.00
2018-04-17T16:11:10.199Z,8700.00
2018-04-17T16:12:10.214Z,8340.00
2018-04-17T16:13:10.259Z,7964.00
2018-04-17T16:14:10.177Z,7848.00
2018-04-17T16:15:10.205Z,7748.00
2018-04-17T16:16:10.195Z,7260.00
2018-04-17T16:17:10.496Z,7072.00
2018-04-17T16:18:10.165Z,6332.00
2018-04-17T16:19:10.451Z,5476.00
2018-04-17T16:20:10.139Z,5016.00
2018-04-17T16:21:10.142Z,4784.00
2018-04-17T16:22:10.165Z,4692.00
2018-04-17T16:23:10.125Z,4712.00
2018-04-17T16:24:10.105Z,4604.00
2018-04-17T16:25:10.096Z,4548.00
2018-04-17T16:26:10.116Z,4680.00
2018-04-17T16:27:10.104Z,4780.00
2018-04-17T16:28:10.071Z,4608.00
2018-04-17T16:29:10.108Z,4684.00
2018-04-17T16:30:10.060Z,4688.00
2018-04-17T16:31:10.117Z,4660.00
2018-04-17T16:32:10.065Z,4664.00
2018-04-17T16:33:10.052Z,4668.00
2018-04-17T16:34:10.034Z,4636.00
2018-04-17T16:35:10.009Z,4652.00
2018-04-17T16:36:10.005Z,4604.00
2018-04-17T16:37:10.033Z,4584.00
2018-04-17T16:38:09.998Z,4656.00
2018-04-17T16:39:09.979Z,4800.00
2018-04-17T16:40:09.998Z,4868.00
2018-04-17T16:41:10.031Z,5004.00
2018-04-17T16:42:09.956Z,5140.00
2018-04-17T16:43:10.060Z,5084.00
2018-04-17T16:44:09.949Z,4980.00
2018-04-17T16:45:10.073Z,4960.00
2018-04-17T16:46:09.919Z,4788.00
2018-04-17T16:47:09.905Z,4768.00
2018-04-17T16:48:09.942Z,4912.00
2018-04-17T16:49:09.895Z,5080.00
2018-04-17T16:50:09.874Z,5160.00
2018-04-17T16:51:09.896Z,5200.00
2018-04-17T16:52:09.889Z,5300.00
2018-04-17T16:53:09.848Z,5352.00
2018-04-17T16:54:09.873Z,5204.00
2018-04-17T16:55:09.836Z,5016.00
2018-04-17T16:56:09.847Z,5076.00
2018-04-17T16:57:09.804Z,5104.00
2018-04-17T16:58:09.817Z,5116.00
2018-04-17T16:59:09.818Z,5092.00
2018-04-17T17:00:09.810Z,5016.00
2018-04-17T17:01:09.817Z,4972.00
2018-04-17T17:02:09.801Z,4936.00
2018-04-17T17:03:09.757Z,4924.00
2018-04-17T17:04:09.756Z,4868.00
2018-04-17T17:05:09.761Z,4720.00
2018-04-17T17:06:09.720Z,4568.00
2018-04-17T17:07:09.741Z,4456.00
2018-04-17T17:08:09.703Z,4316.00
2018-04-17T17:09:09.737Z,4148.00
2018-04-17T17:10:09.699Z,4024.00
2018-04-17T17:11:09.697Z,3988.00
2018-04-17T17:12:09.671Z,4012.00
2018-04-17T17:13:09.676Z,4068.00
2018-04-17T17:14:09.680Z,4092.00
2018-04-17T17:15:09.679Z,4004.00
2018-04-17T17:16:09.639Z,3872.00
2018-04-17T17:17:09.639Z,3844.00
2018-04-17T17:18:09.658Z,3884.00
2018-04-17T17:19:09.616Z,3896.00
2018-04-17T17:20:09.593Z,3908.00
2018-04-17T17:21:09.583Z,3912.00
2018-04-17T17:22:09.620Z,3924.00
2018-04-17T17:23:09.579Z,3880.00
2018-04-17T17:24:09.545Z,3848.00
2018-04-17T17:25:09.566Z,3816.00
2018-04-17T17:26:09.534Z,3764.00
2018-04-17T17:27:09.535Z,3672.00
2018-04-17T17:28:09.523Z,3544.00
2018-04-17T17:29:09.532Z,3440.00
2018-04-17T17:30:09.508Z,3344.00
2018-04-17T17:31:09.478Z,3204.00
2018-04-17T17:32:09.467Z,3084.00
2018-04-17T17:33:09.464Z,2992.00
2018-04-17T17:34:09.451Z,2892.00
2018-04-17T17:35:09.437Z,2800.00
2018-04-17T17:36:09.424Z,2708.00
2018-04-17T17:37:09.417Z,2584.00
2018-04-17T17:38:09.416Z,2468.00
2018-04-17T17:39:09.402Z,2340.00
2018-04-17T17:40:09.391Z,2252.00
2018-04-17T17:41:09.419Z,2196.00
2018-04-17T17:42:09.378Z,2128.00
2018-04-17T17:43:09.351Z,2028.00
2018-04-17T17:44:09.369Z,1932.00
2018-04-17T17:45:09.332Z,1844.00